createdAt,value
2023-05-23T00:00:27.828Z,15.57
2023-05-23T00:02:57.015Z,15.63
2023-05-23T00:05:27.674Z,14.82
2023-05-23T00:07:56.961Z,13.20
2023-05-23T00:10:26.096Z,12.43
2023-05-23T00:12:55.125Z,13.82
2023-05-23T00:15:26.445Z,13.30
2023-05-23T00:17:55.550Z,12.82
2023-05-23T00:20:24.630Z,13.00
2023-05-23T00:22:53.856Z,13.40
2023-05-23T00:25:22.997Z,13.73
2023-05-23T00:27:52.109Z,14.45
2023-05-23T00:30:21.255Z,12.60
2023-05-23T00:32:54.888Z,13.63
2023-05-23T00:35:24.710Z,13.65
2023-05-23T00:37:55.093Z,13.02
2023-05-23T00:40:24.650Z,13.38
2023-05-23T00:42:53.704Z,12.98
2023-05-23T00:45:23.022Z,12.30
2023-05-23T00:47:54.142Z,12.90
2023-05-23T00:50:23.634Z,13.27
2023-05-23T00:52:52.862Z,13.65
2023-05-23T00:55:22.038Z,13.02
2023-05-23T00:57:51.658Z,14.93
2023-05-23T01:00:21.474Z,12.80
2023-05-23T01:02:54.284Z,13.07
2023-05-23T01:05:25.801Z,12.45
2023-05-23T01:07:56.943Z,14.10
2023-05-23T01:10:28.337Z,13.63
2023-05-23T01:13:09.528Z,12.25
2023-05-23T01:15:43.485Z,12.05
2023-05-23T01:18:18.739Z,12.77
2023-05-23T01:20:53.604Z,12.38
2023-05-23T01:24:03.327Z,11.07
2023-05-23T01:26:42.489Z,11.07
2023-05-23T01:29:17.780Z,11.57
2023-05-23T01:31:50.997Z,11.18
2023-05-23T01:34:20.914Z,12.13
2023-05-23T01:36:52.247Z,11.77
2023-05-23T01:39:21.342Z,11.07
2023-05-23T01:41:52.045Z,10.05
2023-05-23T01:44:23.632Z,10.02
2023-05-23T01:46:52.717Z,10.18
2023-05-23T01:49:23.956Z,10.70
2023-05-23T01:51:53.071Z,10.30
2023-05-23T01:54:22.300Z,11.05
2023-05-23T01:56:51.885Z,9.73
2023-05-23T01:59:22.822Z,10.27
2023-05-23T02:01:52.283Z,10.73
2023-05-23T02:04:21.523Z,10.95
2023-05-23T02:06:50.648Z,10.35
2023-05-23T02:09:19.888Z,10.20
2023-05-23T02:11:48.910Z,9.95
2023-05-23T02:14:19.394Z,9.75
2023-05-23T02:16:50.176Z,10.02
2023-05-23T02:19:19.291Z,11.48
2023-05-23T02:21:48.405Z,10.23
2023-05-23T02:24:17.528Z,9.93
2023-05-23T02:26:46.713Z,11.10
2023-05-23T02:29:15.813Z,9.60
2023-05-23T02:31:44.899Z,10.27
2023-05-23T02:34:15.737Z,9.93
2023-05-23T02:36:44.780Z,8.77
2023-05-23T02:39:14.367Z,10.57
2023-05-23T02:41:43.382Z,10.45
2023-05-23T02:44:12.537Z,9.93
2023-05-23T02:46:41.783Z,10.57
2023-05-23T02:49:10.904Z,9.90
2023-05-23T02:51:41.743Z,9.95
2023-05-23T02:54:10.751Z,11.07
2023-05-23T02:56:40.004Z,11.18
2023-05-23T02:59:09.018Z,10.50
2023-05-23T03:01:38.461Z,10.85
2023-05-23T03:04:07.652Z,11.18
2023-05-23T03:06:37.599Z,10.77
2023-05-23T03:09:08.695Z,11.65
2023-05-23T03:11:37.718Z,11.32
2023-05-23T03:14:06.886Z,11.38
2023-05-23T03:16:35.979Z,10.80
2023-05-23T03:19:05.617Z,11.35
2023-05-23T03:21:36.334Z,11.18
2023-05-23T03:24:07.941Z,12.07
2023-05-23T03:26:37.370Z,11.07
2023-05-23T03:29:07.223Z,11.07
2023-05-23T03:31:36.279Z,12.35
2023-05-23T03:34:06.602Z,11.82
2023-05-23T03:36:36.657Z,11.35
2023-05-23T03:39:07.524Z,11.30
2023-05-23T03:41:36.645Z,11.02
2023-05-23T03:44:05.920Z,12.18
2023-05-23T03:46:35.062Z,12.15
2023-05-23T03:49:04.145Z,11.23
2023-05-23T03:51:33.140Z,11.45
2023-05-23T03:54:02.403Z,11.52
2023-05-23T03:56:33.207Z,12.07
2023-05-23T03:59:02.540Z,11.93
2023-05-23T04:01:31.584Z,11.93
2023-05-23T04:04:01.162Z,13.15
2023-05-23T04:06:32.108Z,12.98
2023-05-23T04:09:02.163Z,12.25
2023-05-23T04:11:33.160Z,12.07
2023-05-23T04:14:02.946Z,11.98
2023-05-23T04:16:34.324Z,13.50
2023-05-23T04:19:06.710Z,12.15
2023-05-23T04:21:35.747Z,12.95
2023-05-23T04:24:04.981Z,13.43
2023-05-23T04:26:37.264Z,12.63
2023-05-23T04:29:06.894Z,14.02
2023-05-23T04:31:36.101Z,13.00
2023-05-23T04:34:05.204Z,14.02
2023-05-23T04:36:34.287Z,14.05
2023-05-23T04:39:03.322Z,13.93
2023-05-23T04:41:32.526Z,14.43
2023-05-23T04:44:03.233Z,16.20
2023-05-23T04:46:32.978Z,15.38
2023-05-23T04:49:02.448Z,15.73
2023-05-23T04:51:31.540Z,14.60
2023-05-23T04:54:00.631Z,16.30
2023-05-23T04:56:29.869Z,16.23
2023-05-23T04:58:58.950Z,16.48
2023-05-23T05:01:29.934Z,15.07
2023-05-23T05:03:59.086Z,16.95
2023-05-23T05:06:29.662Z,16.02
2023-05-23T05:08:58.740Z,16.58
2023-05-23T05:11:28.246Z,17.83
2023-05-23T05:13:57.348Z,16.70
2023-05-23T05:16:26.659Z,16.88
2023-05-23T05:18:58.212Z,16.70
2023-05-23T05:21:27.294Z,17.90
2023-05-23T05:23:56.285Z,17.98
2023-05-23T05:26:25.516Z,18.88
2023-05-23T05:28:54.583Z,17.92
2023-05-23T05:31:23.758Z,16.42
2023-05-23T05:33:52.948Z,18.52
2023-05-23T05:36:23.688Z,18.50
2023-05-23T05:38:54.018Z,18.80
2023-05-23T05:41:23.239Z,18.20
2023-05-23T05:43:53.002Z,18.92
2023-05-23T05:46:22.263Z,18.60
2023-05-23T05:48:51.334Z,19.05
2023-05-23T05:51:20.432Z,20.60
2023-05-23T05:53:51.178Z,21.08
2023-05-23T05:56:20.180Z,21.17
2023-05-23T05:58:49.229Z,20.60
2023-05-23T06:01:18.383Z,19.02
2023-05-23T06:03:47.658Z,21.85
2023-05-23T06:06:16.874Z,22.40
2023-05-23T06:08:46.226Z,21.95
2023-05-23T06:11:16.922Z,21.80
2023-05-23T06:13:45.944Z,22.48
2023-05-23T06:16:16.108Z,23.02
2023-05-23T06:18:45.978Z,22.52
2023-05-23T06:21:15.026Z,22.45
2023-05-23T06:23:44.107Z,22.30
2023-05-23T06:26:13.188Z,22.40
2023-05-23T06:28:43.925Z,20.75
2023-05-23T06:31:13.097Z,22.50
2023-05-23T06:33:42.876Z,21.58
2023-05-23T06:36:12.061Z,20.05
2023-05-23T06:38:41.242Z,21.13
2023-05-23T06:41:10.291Z,21.65
2023-05-23T06:43:39.355Z,21.05
2023-05-23T06:46:10.161Z,19.77
2023-05-23T06:48:39.284Z,21.00
2023-05-23T06:51:08.510Z,20.85
2023-05-23T06:53:37.604Z,22.00
2023-05-23T06:56:07.028Z,21.98
2023-05-23T06:58:36.537Z,21.75
2023-05-23T07:01:05.855Z,22.38
2023-05-23T07:03:36.615Z,21.95
2023-05-23T07:06:05.812Z,20.90
2023-05-23T07:08:34.900Z,20.98
2023-05-23T07:11:04.914Z,21.40
2023-05-23T07:13:34.277Z,20.50
2023-05-23T07:16:03.371Z,20.30
2023-05-23T07:18:32.346Z,20.80
2023-05-23T07:21:03.151Z,19.88
2023-05-23T07:23:37.587Z,20.40
2023-05-23T07:26:06.720Z,20.45
2023-05-23T07:28:35.805Z,19.45
2023-05-23T07:31:05.068Z,20.75
2023-05-23T07:33:35.378Z,22.77
2023-05-23T07:36:06.451Z,23.25
2023-05-23T07:38:35.465Z,23.48
2023-05-23T07:41:11.367Z,23.88
2023-05-23T07:43:41.748Z,24.40
2023-05-23T07:46:10.820Z,23.83
2023-05-23T07:48:39.974Z,23.67
2023-05-23T07:51:10.764Z,21.15
2023-05-23T07:53:40.840Z,22.10
2023-05-23T07:56:09.889Z,20.73
2023-05-23T07:58:39.054Z,18.20
2023-05-23T08:01:08.927Z,16.17
2023-05-23T08:03:38.425Z,16.52
2023-05-23T08:06:08.326Z,15.35
2023-05-23T08:08:39.284Z,14.45
2023-05-23T08:11:08.412Z,14.95
2023-05-23T08:13:37.464Z,15.40
2023-05-23T08:16:06.862Z,14.48
2023-05-23T08:18:37.403Z,16.23
2023-05-23T08:21:06.579Z,16.73
2023-05-23T08:23:35.683Z,15.65
2023-05-23T08:26:06.417Z,16.35
2023-05-23T08:28:35.746Z,15.85
2023-05-23T08:31:04.833Z,15.65
2023-05-23T08:33:33.966Z,14.55
2023-05-23T08:36:03.028Z,14.85
2023-05-23T08:38:32.870Z,13.98
2023-05-23T08:41:03.554Z,15.88
2023-05-23T08:43:34.334Z,14.13
2023-05-23T08:46:05.528Z,13.30
2023-05-23T08:48:39.154Z,13.07
2023-05-23T08:51:10.854Z,13.77
2023-05-23T08:53:42.631Z,13.32
2023-05-23T08:56:12.384Z,13.40
2023-05-23T08:58:44.391Z,13.27
2023-05-23T09:01:14.406Z,12.57
2023-05-23T09:03:44.032Z,13.00
2023-05-23T09:06:13.997Z,13.65
2023-05-23T09:08:46.862Z,12.70
2023-05-23T09:11:15.946Z,13.70
2023-05-23T09:13:46.714Z,11.35
2023-05-23T09:16:21.007Z,11.80
2023-05-23T09:18:50.113Z,11.32
2023-05-23T09:21:19.281Z,10.23
2023-05-23T09:23:48.597Z,9.07
2023-05-23T09:26:17.901Z,9.10
2023-05-23T09:28:49.608Z,9.20
2023-05-23T09:31:18.761Z,8.43
2023-05-23T09:33:49.096Z,7.75
2023-05-23T09:36:19.307Z,7.60
2023-05-23T09:38:53.416Z,6.18
2023-05-23T09:41:23.009Z,6.10
2023-05-23T09:43:55.077Z,6.60
2023-05-23T09:46:24.616Z,6.80
2023-05-23T09:48:54.725Z,5.72
2023-05-23T09:51:24.764Z,6.20
2023-05-23T09:53:54.196Z,6.13
2023-05-23T09:56:24.899Z,6.40
2023-05-23T09:58:57.095Z,6.00
2023-05-23T10:01:28.517Z,5.85
2023-05-23T10:04:00.168Z,6.10
2023-05-23T10:06:33.396Z,5.90
2023-05-23T10:09:05.377Z,6.15
2023-05-23T10:12:09.292Z,6.50
2023-05-23T10:14:45.225Z,5.07
2023-05-23T10:17:20.955Z,3.60
2023-05-23T10:19:56.739Z,3.38
2023-05-23T10:22:27.051Z,3.17
2023-05-23T10:24:56.552Z,3.35
2023-05-23T10:27:25.704Z,3.30
2023-05-23T10:29:56.644Z,3.70
2023-05-23T10:32:27.345Z,3.78
2023-05-23T10:35:02.957Z,3.70
2023-05-23T10:37:37.455Z,3.00
2023-05-23T10:40:18.721Z,2.95
2023-05-23T10:42:55.669Z,2.97
2023-05-23T10:45:26.646Z,2.88
2023-05-23T10:47:56.076Z,2.88
2023-05-23T10:50:37.946Z,3.05
2023-05-23T10:53:08.061Z,2.60
2023-05-23T10:55:38.550Z,2.97
2023-05-23T10:58:16.798Z,2.97
2023-05-23T11:00:55.855Z,3.40
2023-05-23T11:03:39.323Z,3.03
2023-05-23T11:06:08.887Z,3.25
2023-05-23T11:08:48.553Z,3.60
2023-05-23T11:11:18.126Z,3.50
2023-05-23T11:13:57.971Z,3.70
2023-05-23T11:16:29.827Z,3.60
2023-05-23T11:19:23.853Z,3.80
2023-05-23T11:21:55.507Z,3.63
2023-05-23T11:24:24.842Z,3.38
2023-05-23T11:27:01.408Z,3.33
2023-05-23T11:29:30.985Z,3.72
2023-05-23T11:32:01.825Z,3.95
2023-05-23T11:34:30.870Z,3.17
2023-05-23T11:37:00.010Z,3.67
2023-05-23T11:39:29.036Z,3.50
2023-05-23T11:42:01.883Z,4.03
2023-05-23T11:44:31.508Z,4.10
2023-05-23T11:47:07.551Z,3.80
2023-05-23T11:49:41.170Z,3.97
2023-05-23T11:52:10.269Z,4.20
2023-05-23T11:54:41.227Z,4.13
2023-05-23T11:57:10.396Z,3.55
2023-05-23T11:59:40.102Z,4.03
2023-05-23T12:02:10.848Z,4.63
2023-05-23T12:04:39.972Z,4.00
2023-05-23T12:07:09.196Z,4.03
2023-05-23T12:09:45.196Z,3.92
2023-05-23T12:12:14.680Z,3.80
2023-05-23T12:14:45.496Z,4.07
2023-05-23T12:17:16.244Z,4.18
2023-05-23T12:19:47.979Z,4.40
2023-05-23T12:22:17.060Z,4.40
2023-05-23T12:24:49.090Z,4.35
2023-05-23T12:27:19.512Z,4.53
2023-05-23T12:29:55.382Z,4.28
2023-05-23T12:32:26.910Z,4.25
2023-05-23T12:34:56.098Z,4.25
2023-05-23T12:37:25.378Z,4.22
2023-05-23T12:39:54.502Z,4.53
2023-05-23T12:42:23.621Z,4.22
2023-05-23T12:44:54.800Z,4.13
2023-05-23T12:47:25.682Z,4.30
2023-05-23T12:49:54.862Z,4.10
2023-05-23T12:52:24.310Z,3.90
2023-05-23T12:54:53.684Z,4.40
2023-05-23T12:57:23.378Z,4.10
2023-05-23T12:59:52.487Z,4.22
2023-05-23T13:02:21.624Z,4.15
2023-05-23T13:04:52.420Z,4.35
2023-05-23T13:07:21.586Z,4.07
2023-05-23T13:09:50.666Z,4.40
2023-05-23T13:12:20.284Z,3.80
2023-05-23T13:14:49.450Z,3.65
2023-05-23T13:17:18.639Z,4.20
2023-05-23T13:19:47.733Z,4.45
2023-05-23T13:22:18.498Z,4.75
2023-05-23T13:24:47.590Z,4.40
2023-05-23T13:27:16.893Z,4.30
2023-05-23T13:29:46.035Z,4.18
2023-05-23T13:32:15.096Z,4.57
2023-05-23T13:34:44.451Z,4.20
2023-05-23T13:37:13.529Z,4.53
2023-05-23T13:39:44.309Z,4.60
2023-05-23T13:42:13.478Z,4.47
2023-05-23T13:44:42.545Z,4.32
2023-05-23T13:47:13.401Z,4.72
2023-05-23T13:49:43.154Z,4.60
2023-05-23T13:52:12.316Z,4.45
2023-05-23T13:54:43.007Z,4.93
2023-05-23T13:57:12.126Z,4.95
2023-05-23T13:59:41.152Z,4.88
2023-05-23T14:02:10.354Z,5.47
2023-05-23T14:04:39.536Z,4.85
2023-05-23T14:07:08.653Z,5.43
2023-05-23T14:09:37.761Z,5.00
2023-05-23T14:12:09.289Z,5.60
2023-05-23T14:14:38.367Z,6.15
2023-05-23T14:17:07.740Z,6.53
2023-05-23T14:19:37.374Z,6.32
2023-05-23T14:22:06.773Z,6.90
2023-05-23T14:24:35.860Z,6.50
2023-05-23T14:27:04.929Z,6.53
2023-05-23T14:29:35.654Z,6.63
2023-05-23T14:32:05.182Z,6.10
2023-05-23T14:34:34.342Z,6.72
2023-05-23T14:37:03.583Z,6.35
2023-05-23T14:39:32.582Z,6.30
2023-05-23T14:42:01.896Z,6.35
2023-05-23T14:44:31.053Z,6.28
2023-05-23T14:47:01.956Z,6.18
2023-05-23T14:49:31.068Z,6.55
2023-05-23T14:52:00.298Z,6.60
2023-05-23T14:54:29.431Z,6.20
2023-05-23T14:56:58.518Z,6.20
2023-05-23T14:59:27.653Z,6.05
2023-05-23T15:01:56.709Z,6.10
2023-05-23T15:04:27.924Z,6.05
2023-05-23T15:06:57.199Z,5.18
2023-05-23T15:09:26.237Z,6.07
2023-05-23T15:11:55.447Z,5.15
2023-05-23T15:14:29.860Z,4.72
2023-05-23T15:17:00.000Z,5.07
2023-05-23T15:19:30.963Z,5.10
2023-05-23T15:22:00.187Z,5.07
2023-05-23T15:24:29.250Z,4.90
2023-05-23T15:27:08.193Z,4.65
2023-05-23T15:29:47.780Z,5.05
2023-05-23T15:32:17.022Z,5.18
2023-05-23T15:34:47.996Z,5.60
2023-05-23T15:37:17.767Z,5.50
2023-05-23T15:39:46.883Z,5.90
2023-05-23T15:42:16.067Z,5.28
2023-05-23T15:44:45.155Z,5.65
2023-05-23T15:47:14.263Z,5.45
2023-05-23T15:49:43.362Z,5.07
2023-05-23T15:52:14.251Z,5.43
2023-05-23T15:54:43.292Z,5.32
2023-05-23T15:57:12.483Z,5.28
2023-05-23T15:59:41.592Z,5.35
2023-05-23T16:02:11.055Z,5.30
2023-05-23T16:04:40.253Z,4.70
2023-05-23T16:07:09.269Z,5.07
2023-05-23T16:09:40.050Z,5.30
2023-05-23T16:12:09.778Z,5.78
2023-05-23T16:14:38.793Z,5.43
2023-05-23T16:17:08.591Z,5.35
2023-05-23T16:19:37.807Z,5.72
2023-05-23T16:22:10.002Z,6.05
2023-05-23T16:24:40.685Z,5.55
2023-05-23T16:27:09.760Z,5.50
2023-05-23T16:29:38.865Z,5.50
2023-05-23T16:32:08.894Z,6.07
2023-05-23T16:34:37.973Z,5.85
2023-05-23T16:37:07.839Z,6.20
2023-05-23T16:39:36.920Z,5.45
2023-05-23T16:42:09.484Z,5.85
2023-05-23T16:44:38.572Z,5.68
2023-05-23T16:47:07.752Z,5.40
2023-05-23T16:49:36.864Z,5.47
2023-05-23T16:52:06.305Z,5.75
2023-05-23T16:54:35.630Z,5.32
2023-05-23T16:57:04.942Z,5.63
2023-05-23T16:59:36.219Z,6.00
2023-05-23T17:02:05.560Z,5.43
2023-05-23T17:04:34.555Z,5.28
2023-05-23T17:07:03.635Z,5.40
2023-05-23T17:09:32.694Z,5.25
2023-05-23T17:12:02.144Z,5.13
2023-05-23T17:14:31.247Z,5.43
2023-05-23T17:17:04.202Z,5.25
2023-05-23T17:19:33.338Z,6.15
2023-05-23T17:22:03.868Z,5.22
2023-05-23T17:24:34.054Z,5.65
2023-05-23T17:27:04.573Z,5.28
2023-05-23T17:29:33.615Z,5.95
2023-05-23T17:32:04.467Z,5.65
2023-05-23T17:34:33.640Z,5.53
2023-05-23T17:37:02.760Z,5.32
2023-05-23T17:39:32.076Z,6.03
2023-05-23T17:42:01.802Z,6.20
2023-05-23T17:44:30.958Z,5.60
2023-05-23T17:47:00.087Z,6.28
2023-05-23T17:49:30.967Z,6.75
2023-05-23T17:52:00.579Z,5.93
2023-05-23T17:54:29.648Z,6.30
2023-05-23T17:56:58.745Z,6.03
2023-05-23T17:59:28.811Z,6.65
2023-05-23T18:01:57.871Z,6.13
2023-05-23T18:04:27.305Z,5.82
2023-05-23T18:06:58.292Z,6.80
2023-05-23T18:09:27.316Z,6.70
2023-05-23T18:11:57.112Z,6.80
2023-05-23T18:14:26.260Z,7.45
2023-05-23T18:16:55.442Z,8.27
2023-05-23T18:19:24.881Z,7.40
2023-05-23T18:21:53.989Z,6.15
2023-05-23T18:24:24.710Z,6.90
2023-05-23T18:26:53.826Z,15.80
2023-05-23T18:29:23.317Z,7.65
2023-05-23T18:31:52.446Z,10.88
2023-05-23T18:34:22.105Z,8.80
2023-05-23T18:36:51.364Z,7.43
2023-05-23T18:39:20.663Z,7.05
2023-05-23T18:41:51.458Z,7.07
2023-05-23T18:44:21.106Z,7.13
2023-05-23T18:46:50.376Z,7.57
2023-05-23T18:49:19.916Z,12.73
2023-05-23T18:51:48.980Z,11.05
2023-05-23T18:54:18.116Z,9.00
2023-05-23T18:56:47.547Z,8.07
2023-05-23T18:59:18.512Z,7.25
2023-05-23T19:01:47.627Z,7.55
2023-05-23T19:04:16.747Z,7.45
2023-05-23T19:06:46.815Z,7.75
2023-05-23T19:09:15.926Z,7.97
2023-05-23T19:11:45.032Z,7.45
2023-05-23T19:14:14.594Z,8.02
2023-05-23T19:16:45.900Z,7.80
2023-05-23T19:19:15.667Z,8.07
2023-05-23T19:21:45.011Z,7.70
2023-05-23T19:24:14.201Z,8.40
2023-05-23T19:26:43.336Z,8.32
2023-05-23T19:29:13.059Z,7.43
2023-05-23T19:31:42.346Z,7.60
2023-05-23T19:34:13.647Z,9.27
2023-05-23T19:36:42.929Z,8.32
2023-05-23T19:39:13.349Z,8.63
2023-05-23T19:41:42.876Z,8.15
2023-05-23T19:44:12.715Z,8.07
2023-05-23T19:46:41.824Z,8.68
2023-05-23T19:49:14.486Z,7.82
2023-05-23T19:51:43.711Z,8.45
2023-05-23T19:54:14.456Z,8.38
2023-05-23T19:56:43.647Z,9.00
2023-05-23T19:59:13.411Z,8.43
2023-05-23T20:01:42.700Z,8.35
2023-05-23T20:04:13.762Z,8.85
2023-05-23T20:06:43.009Z,9.23
2023-05-23T20:09:12.081Z,9.80
2023-05-23T20:11:41.321Z,9.52
2023-05-23T20:14:10.476Z,7.93
2023-05-23T20:16:39.682Z,8.82
2023-05-23T20:19:08.933Z,8.25
2023-05-23T20:21:39.678Z,8.15
2023-05-23T20:24:09.055Z,8.40
2023-05-23T20:26:38.156Z,8.60
2023-05-23T20:29:08.034Z,8.10
2023-05-23T20:31:37.244Z,9.05
2023-05-23T20:34:06.500Z,7.97
2023-05-23T20:36:35.820Z,7.57
2023-05-23T20:39:06.758Z,8.00
2023-05-23T20:41:35.832Z,7.28
2023-05-23T20:44:04.916Z,7.22
2023-05-23T20:46:34.526Z,7.72
2023-05-23T20:49:04.361Z,8.63
2023-05-23T20:51:34.498Z,7.75
2023-05-23T20:54:04.109Z,8.68
2023-05-23T20:56:34.917Z,8.68
2023-05-23T20:59:04.144Z,8.00
2023-05-23T21:01:33.814Z,8.27
2023-05-23T21:04:03.645Z,8.93
2023-05-23T21:06:33.466Z,8.52
2023-05-23T21:09:02.606Z,7.55
2023-05-23T21:11:31.878Z,8.55
2023-05-23T21:14:02.693Z,7.40
2023-05-23T21:16:33.316Z,6.70
2023-05-23T21:19:02.642Z,6.63
2023-05-23T21:21:31.729Z,7.50
2023-05-23T21:24:00.849Z,6.95
2023-05-23T21:26:29.961Z,6.70
2023-05-23T21:28:59.059Z,7.30
2023-05-23T21:31:40.321Z,6.28
2023-05-23T21:34:23.417Z,6.20
2023-05-23T21:36:54.109Z,7.43
2023-05-23T21:39:23.126Z,8.38
2023-05-23T21:41:52.213Z,8.23
2023-05-23T21:44:21.346Z,8.85
2023-05-23T21:46:52.252Z,7.20
2023-05-23T21:49:21.340Z,7.35
2023-05-23T21:51:50.755Z,7.07
2023-05-23T21:54:20.070Z,7.78
2023-05-23T21:56:49.227Z,7.60
2023-05-23T21:59:18.325Z,7.43
2023-05-23T22:01:47.757Z,6.97
2023-05-23T22:04:20.819Z,7.05
2023-05-23T22:06:49.896Z,8.52
2023-05-23T22:09:19.276Z,8.80
2023-05-23T22:11:48.448Z,7.88
2023-05-23T22:14:17.676Z,7.63
2023-05-23T22:16:47.013Z,9.68
2023-05-23T22:19:21.809Z,8.38
2023-05-23T22:21:50.904Z,9.35
2023-05-23T22:24:19.944Z,9.88
2023-05-23T22:26:49.274Z,8.07
2023-05-23T22:29:18.434Z,8.30
2023-05-23T22:31:48.357Z,8.73
2023-05-23T22:34:19.144Z,9.20
2023-05-23T22:36:48.817Z,8.40
2023-05-23T22:39:18.046Z,8.43
2023-05-23T22:41:47.586Z,9.07
2023-05-23T22:44:16.790Z,8.63
2023-05-23T22:46:45.885Z,7.85
2023-05-23T22:49:16.318Z,9.75
2023-05-23T22:51:46.994Z,8.45
2023-05-23T22:54:16.139Z,9.10
2023-05-23T22:56:45.183Z,7.60
2023-05-23T22:59:14.193Z,7.68
2023-05-23T23:01:43.577Z,7.70
2023-05-23T23:04:12.999Z,9.15
2023-05-23T23:06:44.051Z,9.02
2023-05-23T23:09:15.172Z,8.15
2023-05-23T23:11:44.253Z,8.50
2023-05-23T23:14:13.469Z,8.85
2023-05-23T23:16:43.568Z,8.32
2023-05-23T23:19:13.195Z,8.40
2023-05-23T23:21:42.200Z,8.65
2023-05-23T23:24:11.896Z,7.82
2023-05-23T23:26:42.703Z,7.63
2023-05-23T23:29:11.877Z,8.18
2023-05-23T23:31:41.180Z,8.10
2023-05-23T23:34:10.246Z,7.63
2023-05-23T23:36:40.712Z,7.97
2023-05-23T23:39:09.794Z,7.90
2023-05-23T23:41:38.880Z,8.38
2023-05-23T23:44:09.556Z,8.80
2023-05-23T23:46:38.717Z,7.90
2023-05-23T23:49:07.790Z,8.73
2023-05-23T23:51:37.353Z,8.23
2023-05-23T23:54:06.483Z,8.07
2023-05-23T23:56:35.527Z,8.55
2023-05-23T23:59:04.505Z,8.10
